Back in the air again!

Lang ist’s her, viel zu lang… Entweder wollte Petrus nicht, oder dann meine Agenda: Seit dem 8. Dezember (LSGL) war ich nicht mehr in der Luft! Die Zeit vertrieb ich mir mit Spotten,  beim Video oder DVD gucken, mittlerweile habe ich auch schon über 6 Stunden im “Flight Navigation and Procedures Trainer”, im Simulator, hinter mir. Ist aber alles nicht das Gleiche wie die HB-CWE:

METAR LSZB 271420Z 30005KT 5000 BKN022 M03/M07 Q1023 NOSIG

Naja, für ein paar Platzrunden hat’s gereicht. Der Rost ist weg, jetzt gehts in raschen Schritten gegen das Ausbildungsende zu! Stay tuned for more in-air-action!

Dieser Beitrag wurde unter PPL abgelegt und mit , , , , verschlagwortet. Setze ein Lesezeichen auf den Permalink.

Schreibe einen Kommentar